Monday, June 18, 2018, 8:49 PM EDT
Back to Local

KDYL, Doylestown Airport

Location: Doylestown, PA, United States Lat: 40.333
Local Time: 8:49 PM EDT ( 0:49 GMT) Lon: -75.117
Time Zone: US/Eastern Elev: 393 ft

Show me the last for .
Show Decoded

2018-06-18 20:16 METAR KDYL 190016Z AUTO 25005KT 9SM -TSRA SCT060 29/23 A2985 RMK AO2 LTG DSNT
                 W-NE RAB11 TSB10 P0000 T02940233 =
2018-06-18 20:01 METAR KDYL 190001Z AUTO 23006KT 10SM VCTS CLR 31/22 A2984 RMK AO2 LTG DSNT W-NE
                 PRESRR T03060222 =
2018-06-18 19:54 METAR KDYL 182354Z AUTO 21008KT 10SM CLR 31/22 A2982 RMK AO2 LTG DSNT W-NE
                 SLP091 T03060222 10339 20300 56018 =
2018-06-18 18:54 METAR KDYL 182254Z AUTO 22009G17KT 10SM CLR 31/23 A2983 RMK AO2 SLP094 T03110228
                 =
2018-06-18 17:54 METAR KDYL 182154Z AUTO 22009G15KT 10SM CLR 32/23 A2985 RMK AO2 SLP102 T03170233
                 =
2018-06-18 16:54 METAR KDYL 182054Z AUTO 21010G16KT 10SM FEW047 33/22 A2988 RMK AO2 SLP109
                 T03280222 56026 =
2018-06-18 15:54 METAR KDYL 181954Z AUTO 22009G16KT 10SM FEW045 33/22 A2989 RMK AO2 SLP116
                 T03330222 =
2018-06-18 14:54 METAR KDYL 181854Z AUTO 21007KT 10SM CLR 33/22 A2992 RMK AO2 SLP125 T03330222 =
2018-06-18 13:54 METAR KDYL 181754Z AUTO 23009G16KT 10SM CLR 33/22 A2995 RMK AO2 SLP136 T03330222
                 10333 20233 58019 =
2018-06-18 12:54 METAR KDYL 181654Z AUTO 21009KT 10SM FEW070 32/21 A2998 RMK AO2 SLP144 T03170211
                 =
2018-06-18 11:54 METAR KDYL 181554Z AUTO 23007G15KT 190V260 10SM CLR 31/21 A2999 RMK AO2 SLP149
                 T03110206 =
2018-06-18 10:54 METAR KDYL 181454Z AUTO 24007KT 190V290 10SM CLR 30/21 A3001 RMK AO2 SLP155
                 T03000206 58012 =
2018-06-18 09:54 METAR KDYL 181354Z AUTO 25006KT 10SM CLR 28/21 A3002 RMK AO2 SLP159 T02780206 =
2018-06-18 08:54 METAR KDYL 181254Z AUTO 24005KT 10SM CLR 26/21 A3004 RMK AO2 SLP165 T02560206 =
2018-06-18 07:54 METAR KDYL 181154Z AUTO 22005KT 10SM CLR 23/20 A3005 RMK AO2 SLP169 T02330200
                 10233 20183 58003 =
2018-06-18 06:54 METAR KDYL 181054Z AUTO 19003KT 10SM CLR 22/19 A3005 RMK AO2 SLP168 T02170194 =
2018-06-18 05:54 METAR KDYL 180954Z AUTO 17004KT 10SM CLR 19/18 A3006 RMK AO2 SLP174 T01940183 =
2018-06-18 04:54 METAR KDYL 180854Z AUTO 17004KT 10SM CLR 19/18 A3006 RMK AO2 SLP171 T01940183
                 57007 =
2018-06-18 03:54 METAR KDYL 180754Z AUTO 17003KT 10SM CLR 19/17 A3006 RMK AO2 SLP173 T01890172 =
2018-06-18 02:54 METAR KDYL 180654Z AUTO 17003KT 10SM CLR 21/17 A3007 RMK AO2 SLP177 T02060172 =
2018-06-18 01:54 METAR KDYL 180554Z AUTO 00000KT 10SM CLR 22/17 A3008 RMK AO2 SLP178 T02170167
                 10267 20217 51003 =
2018-06-18 00:54 METAR KDYL 180454Z AUTO 18004KT 10SM CLR 22/16 A3007 RMK AO2 SLP178 T02170161
                 403220150 =
2018-06-17 23:54 METAR KDYL 180354Z AUTO 17003KT 10SM CLR 23/16 A3007 RMK AO2 SLP177 T02280156 =
2018-06-17 22:54 METAR KDYL 180254Z AUTO 18004KT 10SM CLR 24/17 A3007 RMK AO2 SLP175 T02390167
                 53005 =
2018-06-17 21:54 METAR KDYL 180154Z AUTO 16004KT 10SM CLR 24/17 A3006 RMK AO2 SLP173 T02440167 =
2018-06-17 20:54 METAR KDYL 180054Z AUTO VRB05KT 10SM CLR 26/17 A3005 RMK AO2 SLP169 T02610172 =

Support USWX by starting your Amazon purchase here.